Time;durP1;ratioP1;P1;durP2;ratioP2;P2;SDS_P1;SDS_P2;PMS_P1;PMS_P2;Temp;Humidity;BMP_temperature;BMP_pressure;BME280_temperature;BME280_humidity;BME280_pressure;Samples;Min_cycle;Max_cycle;Signal;HPM_P1;HPM_P2
2022/03/31 00:01:31;;;;;;;18.52;9.93;;;;;;;;;;8298212;28;20045;-83
2022/03/31 00:05:35;;;;;;;9.75;6.35;;;;;;;;;;8298136;28;20129;-83
2022/03/31 00:09:38;;;;;;;12.98;6.85;;;;;;;;;;8297982;28;20091;-83
2022/03/31 00:13:42;;;;;;;6.93;4.88;;;;;;;;;;8298815;28;20061;-84
2022/03/31 00:17:44;;;;;;;10.48;6.13;;;;;;;;;;8304584;28;20045;-84
2022/03/31 00:21:49;;;;;;;8.32;5.20;;;;;;;;;;8304599;28;20061;-84
2022/03/31 00:25:51;;;;;;;6.82;4.72;;;;;;;;;;8304094;28;20061;-85
2022/03/31 00:29:54;;;;;;;7.18;4.82;;;;;;;;;;8304643;28;20049;-86
2022/03/31 00:33:56;;;;;;;8.05;5.63;;;;;;;;;;8304424;28;20452;-85
2022/03/31 00:38:01;;;;;;;7.97;4.75;;;;;;;;;;8303906;28;20046;-84
2022/03/31 00:42:04;;;;;;;7.97;4.93;;;;;;;;;;8303768;28;20042;-83
2022/03/31 00:46:07;;;;;;;7.57;4.70;;;;;;;;;;8303731;28;20544;-83
2022/03/31 00:50:11;;;;;;;7.43;4.35;;;;;;;;;;8318525;28;20045;-84
2022/03/31 00:54:16;;;;;;;7.00;4.85;;;;;;;;;;8336819;28;20049;-82
2022/03/31 00:58:20;;;;;;;7.05;4.38;;;;;;;;;;8318564;28;20572;-83
2022/03/31 01:02:22;;;;;;;6.20;4.57;;;;;;;;;;8328342;28;20400;-83
2022/03/31 01:06:25;;;;;;;8.90;5.40;;;;;;;;;;8319732;28;20117;-84
2022/03/31 01:10:29;;;;;;;8.60;5.22;;;;;;;;;;8332971;28;20048;-83
2022/03/31 01:14:32;;;;;;;7.85;5.07;;;;;;;;;;8334320;28;20500;-84
2022/03/31 01:18:35;;;;;;;6.82;4.60;;;;;;;;;;8325288;28;20045;-84
2022/03/31 01:22:37;;;;;;;6.50;4.55;;;;;;;;;;8330299;28;20125;-84
2022/03/31 01:26:43;;;;;;;7.38;4.65;;;;;;;;;;8322998;28;20049;-84
2022/03/31 01:30:46;;;;;;;5.72;4.10;;;;;;;;;;8327740;28;20481;-82
2022/03/31 01:34:49;;;;;;;7.28;4.25;;;;;;;;;;8325845;28;20057;-83
2022/03/31 01:38:51;;;;;;;6.80;4.53;;;;;;;;;;8330887;28;20473;-84
2022/03/31 01:42:55;;;;;;;6.55;4.40;;;;;;;;;;8333096;28;20095;-81
2022/03/31 01:46:58;;;;;;;6.50;4.05;;;;;;;;;;8330449;28;20038;-82
2022/03/31 01:51:00;;;;;;;7.35;4.07;;;;;;;;;;8326337;28;20734;-82
2022/03/31 01:55:03;;;;;;;6.43;4.40;;;;;;;;;;8319609;28;20056;-84
2022/03/31 01:59:07;;;;;;;6.18;4.10;;;;;;;;;;8315229;28;20065;-83
2022/03/31 02:03:10;;;;;;;5.32;3.72;;;;;;;;;;8328978;28;20052;-82
2022/03/31 02:07:12;;;;;;;6.22;4.10;;;;;;;;;;8322351;28;20118;-85
2022/03/31 02:11:15;;;;;;;7.07;4.72;;;;;;;;;;8323746;28;20084;-81
2022/03/31 02:15:20;;;;;;;6.22;4.50;;;;;;;;;;8318339;28;20048;-83
2022/03/31 02:19:22;;;;;;;8.63;4.70;;;;;;;;;;8354253;28;20481;-82
2022/03/31 02:23:25;;;;;;;7.57;5.30;;;;;;;;;;8366306;28;20086;-82
2022/03/31 02:27:28;;;;;;;8.27;4.63;;;;;;;;;;8366769;28;20472;-83
2022/03/31 02:31:32;;;;;;;7.97;5.10;;;;;;;;;;8366133;28;20056;-84
2022/03/31 02:35:35;;;;;;;10.02;5.18;;;;;;;;;;8366145;28;20128;-83
2022/03/31 02:39:38;;;;;;;7.78;4.82;;;;;;;;;;8365457;28;20045;-83
2022/03/31 02:43:40;;;;;;;9.30;5.78;;;;;;;;;;8365768;28;20504;-83
2022/03/31 02:47:46;;;;;;;10.30;6.10;;;;;;;;;;8365680;28;20128;-82
2022/03/31 02:51:48;;;;;;;8.80;5.55;;;;;;;;;;8365494;28;20083;-83
2022/03/31 02:55:51;;;;;;;10.48;5.95;;;;;;;;;;8365246;28;20045;-84
2022/03/31 02:59:53;;;;;;;10.93;6.22;;;;;;;;;;8365296;28;20049;-85
2022/03/31 03:03:59;;;;;;;12.65;7.53;;;;;;;;;;8350978;28;20049;-84
2022/03/31 03:08:02;;;;;;;12.00;6.57;;;;;;;;;;8332246;28;20077;-82
2022/03/31 03:12:06;;;;;;;11.85;6.93;;;;;;;;;;8331877;28;20057;-83
2022/03/31 03:16:09;;;;;;;13.50;7.22;;;;;;;;;;8331804;28;20045;-83
2022/03/31 03:20:15;;;;;;;22.42;12.63;;;;;;;;;;8331567;28;20046;-82
2022/03/31 03:24:18;;;;;;;13.95;7.60;;;;;;;;;;8331498;28;20404;-84
2022/03/31 03:28:21;;;;;;;14.00;7.55;;;;;;;;;;8331488;28;20045;-84
2022/03/31 03:32:23;;;;;;;13.85;7.30;;;;;;;;;;8331284;28;20054;-83
2022/03/31 03:36:27;;;;;;;12.82;7.40;;;;;;;;;;8331745;28;20042;-84
2022/03/31 03:40:31;;;;;;;12.63;7.28;;;;;;;;;;8331205;28;20049;-84
2022/03/31 03:44:35;;;;;;;13.25;7.22;;;;;;;;;;8331065;28;20117;-83
2022/03/31 03:48:37;;;;;;;13.35;7.28;;;;;;;;;;8330185;28;20420;-84
2022/03/31 03:52:42;;;;;;;12.60;7.45;;;;;;;;;;8324732;28;20576;-85
2022/03/31 03:56:44;;;;;;;13.63;7.30;;;;;;;;;;8302975;28;20060;-84
2022/03/31 04:00:47;;;;;;;16.48;8.73;;;;;;;;;;8327243;28;20049;-82
2022/03/31 04:04:50;;;;;;;12.70;7.25;;;;;;;;;;8330776;28;20046;-81
2022/03/31 04:08:54;;;;;;;15.63;7.43;;;;;;;;;;8330775;28;20037;-82
2022/03/31 04:12:56;;;;;;;15.70;8.10;;;;;;;;;;8330845;28;20053;-82
2022/03/31 04:16:59;;;;;;;15.38;7.75;;;;;;;;;;8330494;28;20053;-84
2022/03/31 04:21:02;;;;;;;13.20;7.82;;;;;;;;;;8330874;28;20536;-83
2022/03/31 04:25:08;;;;;;;17.55;8.73;;;;;;;;;;8330360;28;20144;-84
2022/03/31 04:29:11;;;;;;;20.45;9.85;;;;;;;;;;8330225;28;20072;-83
2022/03/31 04:33:14;;;;;;;15.27;8.80;;;;;;;;;;8330092;28;20045;-82
2022/03/31 04:37:17;;;;;;;14.02;7.50;;;;;;;;;;8328388;28;20412;-83
2022/03/31 04:41:21;;;;;;;15.38;8.50;;;;;;;;;;8319633;28;20396;-85
2022/03/31 04:45:23;;;;;;;13.57;7.50;;;;;;;;;;8327105;28;20107;-84
2022/03/31 04:49:26;;;;;;;15.65;8.20;;;;;;;;;;8329843;28;20042;-83
2022/03/31 04:53:29;;;;;;;33.70;17.70;;;;;;;;;;8329740;28;20128;-83
2022/03/31 04:57:34;;;;;;;15.45;9.60;;;;;;;;;;8329897;28;20128;-82
2022/03/31 05:01:37;;;;;;;15.38;7.93;;;;;;;;;;8333171;28;20050;-83
2022/03/31 05:05:40;;;;;;;12.93;7.18;;;;;;;;;;8335979;28;20045;-81
2022/03/31 05:09:44;;;;;;;30.58;16.42;;;;;;;;;;8336113;28;20045;-83
2022/03/31 05:13:49;;;;;;;17.50;9.23;;;;;;;;;;8335641;28;20187;-84
2022/03/31 05:17:52;;;;;;;14.90;8.57;;;;;;;;;;8322260;28;20042;-82
2022/03/31 05:21:55;;;;;;;15.85;8.52;;;;;;;;;;8327542;28;20038;-84
2022/03/31 05:25:58;;;;;;;17.00;9.27;;;;;;;;;;8310690;28;20137;-81
2022/03/31 05:30:02;;;;;;;13.30;7.57;;;;;;;;;;8302403;28;20050;-82
2022/03/31 05:34:05;;;;;;;15.63;8.40;;;;;;;;;;8302258;28;20050;-84
2022/03/31 05:38:08;;;;;;;11.65;6.65;;;;;;;;;;8302221;28;20132;-82
2022/03/31 05:42:10;;;;;;;12.40;7.20;;;;;;;;;;8302134;28;20073;-85
2022/03/31 05:46:15;;;;;;;14.63;7.53;;;;;;;;;;8307535;28;20069;-81
2022/03/31 05:50:17;;;;;;;12.35;6.90;;;;;;;;;;8334260;28;20045;-84
2022/03/31 05:54:20;;;;;;;18.20;9.65;;;;;;;;;;8313945;28;20050;-82
2022/03/31 05:58:23;;;;;;;14.73;8.05;;;;;;;;;;8333012;28;20049;-82
2022/03/31 06:02:28;;;;;;;11.48;6.35;;;;;;;;;;8334107;28;20054;-82
2022/03/31 06:06:30;;;;;;;15.82;7.97;;;;;;;;;;8333778;28;20046;-82
2022/03/31 06:10:33;;;;;;;8.90;5.22;;;;;;;;;;8301618;28;20510;-82
2022/03/31 06:14:36;;;;;;;8.93;5.80;;;;;;;;;;8300151;28;20046;-82
2022/03/31 06:18:40;;;;;;;21.25;10.95;;;;;;;;;;8301440;28;20042;-83
2022/03/31 06:22:43;;;;;;;10.10;6.28;;;;;;;;;;8300698;28;20049;-81
2022/03/31 06:26:46;;;;;;;14.07;7.22;;;;;;;;;;8305734;28;20095;-81
2022/03/31 06:30:51;;;;;;;14.10;7.28;;;;;;;;;;8327122;28;20473;-84
2022/03/31 06:34:55;;;;;;;16.05;7.38;;;;;;;;;;8329613;28;20041;-82
2022/03/31 06:38:57;;;;;;;13.05;7.03;;;;;;;;;;8324308;28;20477;-80
2022/03/31 06:43:01;;;;;;;12.85;7.15;;;;;;;;;;8288899;28;20042;-81
2022/03/31 06:47:10;;;;;;;10.45;6.53;;;;;;;;;;8316705;28;20045;-82
2022/03/31 06:51:20;;;;;;;9.93;5.57;;;;;;;;;;8331588;28;20099;-81
2022/03/31 06:55:26;;;;;;;8.10;5.53;;;;;;;;;;8346254;28;20099;-81
2022/03/31 06:59:31;;;;;;;29.30;14.43;;;;;;;;;;8318322;28;20053;-83
2022/03/31 07:03:39;;;;;;;10.45;5.93;;;;;;;;;;8337192;28;20476;-81
2022/03/31 07:07:47;;;;;;;10.48;6.53;;;;;;;;;;8330054;28;20045;-83
2022/03/31 07:11:52;;;;;;;13.70;7.35;;;;;;;;;;8355368;28;20480;-83
2022/03/31 07:15:59;;;;;;;8.45;5.63;;;;;;;;;;8345840;28;20508;-84
2022/03/31 07:20:03;;;;;;;8.68;5.88;;;;;;;;;;8308961;28;20136;-82
2022/03/31 07:24:14;;;;;;;10.23;6.47;;;;;;;;;;8313639;28;20077;-81
2022/03/31 07:28:19;;;;;;;14.05;8.65;;;;;;;;;;8312404;28;20049;-81
2022/03/31 07:32:28;;;;;;;15.32;10.15;;;;;;;;;;8330855;28;20049;-81
2022/03/31 07:36:35;;;;;;;14.18;8.43;;;;;;;;;;8313117;28;20050;-82
2022/03/31 07:40:42;;;;;;;11.93;6.95;;;;;;;;;;8329806;28;20627;-82
2022/03/31 07:44:48;;;;;;;30.30;13.73;;;;;;;;;;8313130;28;20057;-83
2022/03/31 07:48:54;;;;;;;12.18;7.50;;;;;;;;;;8330562;28;20049;-81
2022/03/31 07:52:58;;;;;;;44.50;29.48;;;;;;;;;;8330336;28;20485;-82
2022/03/31 07:57:04;;;;;;;21.40;10.38;;;;;;;;;;8320736;28;20131;-81
2022/03/31 08:01:07;;;;;;;15.80;8.52;;;;;;;;;;8310512;28;20092;-82
2022/03/31 08:05:27;;;;;;;15.02;8.77;;;;;;;;;;8334655;28;20048;-79
2022/03/31 08:09:40;;;;;;;19.95;11.57;;;;;;;;;;8363203;28;20076;-81
2022/03/31 08:13:58;;;;;;;17.98;9.75;;;;;;;;;;8315003;28;20136;-82
2022/03/31 08:18:05;;;;;;;51.75;31.05;;;;;;;;;;8296511;28;20053;-80
2022/03/31 08:22:26;;;;;;;23.63;11.68;;;;;;;;;;8297262;28;20042;-82
2022/03/31 08:26:39;;;;;;;18.30;9.75;;;;;;;;;;8296911;28;20050;-85
2022/03/31 08:30:57;;;;;;;45.38;29.70;;;;;;;;;;8261442;28;20053;-81
2022/03/31 08:35:11;;;;;;;18.10;10.75;;;;;;;;;;8311811;28;20057;-82
2022/03/31 08:39:27;;;;;;;18.45;10.93;;;;;;;;;;8334665;28;20045;-82
2022/03/31 08:43:46;;;;;;;28.55;18.27;;;;;;;;;;8336236;28;20049;-80
2022/03/31 08:48:07;;;;;;;18.08;10.07;;;;;;;;;;8331531;28;20049;-81
2022/03/31 08:52:24;;;;;;;25.88;14.63;;;;;;;;;;8300149;28;20485;-82
2022/03/31 08:56:37;;;;;;;25.23;14.27;;;;;;;;;;8319902;28;20482;-81
2022/03/31 09:00:47;;;;;;;23.50;13.10;;;;;;;;;;8313172;28;20037;-81
2022/03/31 09:05:06;;;;;;;18.67;9.73;;;;;;;;;;8328413;28;20464;-83
2022/03/31 09:09:25;;;;;;;21.08;11.27;;;;;;;;;;8314637;28;20052;-81
2022/03/31 09:13:36;;;;;;;24.10;11.98;;;;;;;;;;8329001;28;20067;-82
2022/03/31 09:17:45;;;;;;;22.08;10.93;;;;;;;;;;8318514;28;20095;-82
2022/03/31 09:21:59;;;;;;;24.88;14.48;;;;;;;;;;8302443;28;20461;-81
2022/03/31 09:26:15;;;;;;;25.17;11.25;;;;;;;;;;8320439;28;20057;-81
2022/03/31 09:30:25;;;;;;;19.70;11.32;;;;;;;;;;8333277;28;20053;-81
2022/03/31 09:34:47;;;;;;;23.02;12.18;;;;;;;;;;8362800;28;20076;-81
2022/03/31 09:39:13;;;;;;;20.65;11.18;;;;;;;;;;8366884;28;20059;-81
2022/03/31 09:43:22;;;;;;;19.08;10.48;;;;;;;;;;8318966;28;20081;-82
2022/03/31 09:47:29;;;;;;;27.10;13.25;;;;;;;;;;8306087;28;20057;-81
2022/03/31 09:51:44;;;;;;;22.60;12.00;;;;;;;;;;8333836;28;20041;-82
2022/03/31 09:56:02;;;;;;;24.60;12.88;;;;;;;;;;8334023;28;20130;-81
2022/03/31 10:00:16;;;;;;;22.58;12.23;;;;;;;;;;8333922;28;20083;-82
2022/03/31 10:04:34;;;;;;;24.95;13.25;;;;;;;;;;8333550;28;20065;-82
2022/03/31 10:08:49;;;;;;;26.10;12.82;;;;;;;;;;8316538;28;20056;-82
2022/03/31 10:13:05;;;;;;;;;;;;;;;;;;8333699;28;20046;-82
2022/03/31 10:17:17;;;;;;;24.80;11.43;;;;;;;;;;8331677;28;19925;-82
2022/03/31 10:21:33;;;;;;;28.27;14.27;;;;;;;;;;8331725;28;20045;-83
2022/03/31 10:25:40;;;;;;;30.40;15.82;;;;;;;;;;8334171;28;20049;-82
2022/03/31 10:29:47;;;;;;;32.22;16.00;;;;;;;;;;8332854;28;20087;-82
2022/03/31 10:33:53;;;;;;;23.10;12.02;;;;;;;;;;8312655;28;20045;-82
2022/03/31 10:37:56;;;;;;;26.30;13.55;;;;;;;;;;8299696;28;20130;-83
2022/03/31 10:42:04;;;;;;;25.10;12.57;;;;;;;;;;8299782;28;20041;-80
2022/03/31 10:46:17;;;;;;;25.80;14.20;;;;;;;;;;8299163;28;20444;-82
2022/03/31 10:50:24;;;;;;;31.48;16.85;;;;;;;;;;8299782;28;20049;-82
2022/03/31 10:54:30;;;;;;;27.00;14.82;;;;;;;;;;8336270;28;20377;-85
2022/03/31 10:58:34;;;;;;;25.25;12.93;;;;;;;;;;8364471;28;20044;-80
2022/03/31 11:02:43;;;;;;;31.30;14.68;;;;;;;;;;8361053;28;20094;-83
2022/03/31 11:06:47;;;;;;;22.35;11.90;;;;;;;;;;8331655;28;20049;-81
2022/03/31 11:10:55;;;;;;;25.45;12.25;;;;;;;;;;8331663;28;20048;-80
2022/03/31 11:15:02;;;;;;;27.80;14.57;;;;;;;;;;8331280;28;20050;-81
2022/03/31 11:19:07;;;;;;;26.40;13.85;;;;;;;;;;8331484;28;20087;-82
2022/03/31 11:23:14;;;;;;;20.70;12.75;;;;;;;;;;8310194;28;20061;-83
2022/03/31 11:27:36;;;;;;;28.38;15.10;;;;;;;;;;8350934;28;20044;-82
2022/03/31 11:31:44;;;;;;;27.10;14.23;;;;;;;;;;8362727;28;20118;-83
2022/03/31 11:35:53;;;;;;;21.98;12.80;;;;;;;;;;8338075;28;20073;-82
2022/03/31 11:39:56;;;;;;;22.95;12.25;;;;;;;;;;8328150;28;20053;-84
2022/03/31 11:44:01;;;;;;;21.63;10.27;;;;;;;;;;8329416;28;20193;-83
2022/03/31 11:48:06;;;;;;;24.70;12.50;;;;;;;;;;8329789;28;20049;-85
2022/03/31 11:52:11;;;;;;;20.80;11.82;;;;;;;;;;8330273;28;20045;-83
2022/03/31 11:56:21;;;;;;;16.63;10.68;;;;;;;;;;8331099;28;20053;-82
2022/03/31 12:00:27;;;;;;;17.23;10.48;;;;;;;;;;8330661;28;20045;-82
2022/03/31 12:04:31;;;;;;;18.88;11.23;;;;;;;;;;8330564;28;20045;-82
2022/03/31 12:08:36;;;;;;;19.60;10.63;;;;;;;;;;8330503;28;20467;-83
2022/03/31 12:12:47;;;;;;;44.70;22.38;;;;;;;;;;8329569;28;20045;-83
2022/03/31 12:16:52;;;;;;;37.45;20.95;;;;;;;;;;8330291;28;20046;-82
2022/03/31 12:21:00;;;;;;;23.85;11.88;;;;;;;;;;8330155;28;20046;-82
2022/03/31 12:25:06;;;;;;;27.00;12.98;;;;;;;;;;8329967;28;20500;-82
2022/03/31 12:29:27;;;;;;;20.40;12.02;;;;;;;;;;8330516;28;20503;-82
2022/03/31 12:33:32;;;;;;;21.10;12.00;;;;;;;;;;8330038;28;20041;-82
2022/03/31 12:37:37;;;;;;;19.80;11.60;;;;;;;;;;8329964;28;20520;-82
2022/03/31 12:41:42;;;;;;;22.48;12.35;;;;;;;;;;8329745;28;20480;-81
2022/03/31 12:45:48;;;;;;;20.27;11.40;;;;;;;;;;8329831;28;20136;-82
2022/03/31 12:49:53;;;;;;;20.90;12.05;;;;;;;;;;8329748;28;20475;-83
2022/03/31 12:53:56;;;;;;;23.65;12.88;;;;;;;;;;8329998;28;20046;-81
2022/03/31 12:58:02;;;;;;;16.58;10.45;;;;;;;;;;8330939;28;20087;-81
2022/03/31 13:02:08;;;;;;;17.08;9.90;;;;;;;;;;8299598;28;20046;-82
2022/03/31 13:06:18;;;;;;;18.58;9.48;;;;;;;;;;8322395;28;20124;-80
2022/03/31 13:10:30;;;;;;;30.05;15.02;;;;;;;;;;8314688;28;20042;-81
2022/03/31 13:14:37;;;;;;;20.40;10.77;;;;;;;;;;8330014;28;20061;-82
2022/03/31 13:19:03;;;;;;;17.08;9.90;;;;;;;;;;8325273;28;20451;-81
2022/03/31 13:23:29;;;;;;;19.88;11.18;;;;;;;;;;8330827;28;20058;-81
2022/03/31 13:27:52;;;;;;;15.95;10.45;;;;;;;;;;8339045;28;20079;-80
2022/03/31 13:32:03;;;;;;;17.55;10.05;;;;;;;;;;8316249;28;20493;-82
2022/03/31 13:36:25;;;;;;;21.30;11.75;;;;;;;;;;8313043;28;20068;-81
2022/03/31 13:40:42;;;;;;;19.50;12.32;;;;;;;;;;8309845;28;20072;-84
2022/03/31 13:44:53;;;;;;;23.48;12.57;;;;;;;;;;8346179;28;20132;-82
2022/03/31 13:49:32;;;;;;;23.30;12.73;;;;;;;;;;8326737;28;20188;-81
2022/03/31 13:53:53;;;;;;;37.00;14.40;;;;;;;;;;8327352;28;20508;-81
2022/03/31 14:02:38;;;;;;;32.55;16.13;;;;;;;;;;8315223;28;20098;-82
2022/03/31 14:06:56;;;;;;;30.83;16.05;;;;;;;;;;8333265;28;20052;-81
2022/03/31 14:11:30;;;;;;;72.60;29.27;;;;;;;;;;8333493;28;20417;-81
2022/03/31 14:15:47;;;;;;;18.85;11.10;;;;;;;;;;8333659;28;20407;-81
2022/03/31 14:20:00;;;;;;;17.35;11.50;;;;;;;;;;8322130;28;20124;-81
2022/03/31 14:24:29;;;;;;;31.75;16.85;;;;;;;;;;8331385;28;20077;-81
2022/03/31 14:28:46;;;;;;;16.98;9.52;;;;;;;;;;8325897;28;20080;-82
2022/03/31 14:32:56;;;;;;;37.38;18.25;;;;;;;;;;8299612;28;20084;-81
2022/03/31 14:37:13;;;;;;;36.38;19.13;;;;;;;;;;8299795;28;20053;-82
2022/03/31 14:41:36;;;;;;;18.88;10.57;;;;;;;;;;8299555;28;20049;-80
2022/03/31 14:45:50;;;;;;;32.60;17.17;;;;;;;;;;8299943;28;20493;-82
2022/03/31 14:50:18;;;;;;;56.45;31.48;;;;;;;;;;8299697;28;20042;-81
2022/03/31 14:54:50;;;;;;;36.47;15.15;;;;;;;;;;8337747;28;20076;-81
2022/03/31 14:59:19;;;;;;;24.23;11.10;;;;;;;;;;8365373;28;20069;-79
2022/03/31 15:03:35;;;;;;;32.70;12.63;;;;;;;;;;8354845;28;20053;-82
2022/03/31 15:07:58;;;;;;;52.20;18.33;;;;;;;;;;8331641;28;20108;-81
2022/03/31 15:16:35;;;;;;;;;;;;;;;;;;8332199;28;20048;-82
2022/03/31 15:20:54;;;;;;;58.08;16.13;;;;;;;;;;8331433;28;19921;-82
2022/03/31 15:25:20;;;;;;;48.60;16.10;;;;;;;;;;8331107;28;20115;-82
2022/03/31 15:29:30;;;;;;;48.72;14.43;;;;;;;;;;8331439;28;20049;-82
2022/03/31 15:34:01;;;;;;;51.00;15.35;;;;;;;;;;8331318;28;20045;-82
2022/03/31 15:38:56;;;;;;;33.25;19.17;;;;;;;;;;8331150;28;20136;-82
2022/03/31 15:43:31;;;;;;;41.85;16.83;;;;;;;;;;8331081;28;20049;-82
2022/03/31 15:47:40;;;;;;;23.25;13.10;;;;;;;;;;8298029;28;20473;-80
2022/03/31 15:51:50;;;;;;;38.20;17.00;;;;;;;;;;8279324;28;20042;-80
2022/03/31 15:56:09;;;;;;;62.00;26.35;;;;;;;;;;8296753;28;20137;-81
2022/03/31 16:00:23;;;;;;;54.42;27.38;;;;;;;;;;8297627;28;20053;-81
2022/03/31 16:04:54;;;;;;;77.80;31.83;;;;;;;;;;8281918;28;20042;-82
2022/03/31 16:09:21;;;;;;;46.08;24.58;;;;;;;;;;8297651;28;20500;-80
2022/03/31 16:18:57;;;;;;;41.08;26.92;;;;;;;;;;8267338;28;20064;-81
2022/03/31 16:27:55;;;;;;;70.00;30.48;;;;;;;;;;8202379;29;20423;-82
2022/03/31 16:32:17;;;;;;;35.53;20.35;;;;;;;;;;8202425;29;20055;-82
2022/03/31 16:36:31;;;;;;;37.63;18.13;;;;;;;;;;8212350;28;20410;-81
2022/03/31 16:40:54;;;;;;;58.78;21.98;;;;;;;;;;8205747;28;20478;-80
2022/03/31 16:45:34;;;;;;;85.88;27.83;;;;;;;;;;8229894;28;20043;-83
2022/03/31 16:49:40;;;;;;;108.80;34.10;;;;;;;;;;8199722;28;20066;-82
2022/03/31 16:53:45;;;;;;;59.45;21.75;;;;;;;;;;8214853;28;20054;-82
2022/03/31 16:57:50;;;;;;;51.60;24.52;;;;;;;;;;8216089;28;20047;-81
2022/03/31 17:01:56;;;;;;;62.30;29.10;;;;;;;;;;8214803;28;20134;-81
2022/03/31 17:06:00;;;;;;;75.28;27.23;;;;;;;;;;8212510;28;20075;-81
2022/03/31 17:10:05;;;;;;;57.65;20.88;;;;;;;;;;8227557;28;20050;-80
2022/03/31 17:14:08;;;;;;;109.40;37.45;;;;;;;;;;8224253;28;20089;-81
2022/03/31 17:18:13;;;;;;;32.88;12.60;;;;;;;;;;8214901;28;20129;-82
2022/03/31 17:22:18;;;;;;;74.47;30.10;;;;;;;;;;8209587;28;20508;-81
2022/03/31 17:26:21;;;;;;;87.43;36.50;;;;;;;;;;8279816;28;20053;-81
2022/03/31 17:30:45;;;;;;;35.58;19.02;;;;;;;;;;8299793;28;20058;-82
2022/03/31 17:35:01;;;;;;;109.75;33.60;;;;;;;;;;8289961;28;20448;-80
2022/03/31 17:39:05;;;;;;;63.88;25.60;;;;;;;;;;8288188;28;20055;-81
2022/03/31 17:43:08;;;;;;;56.92;22.10;;;;;;;;;;8296993;28;20070;-82
2022/03/31 17:47:12;;;;;;;43.50;14.77;;;;;;;;;;8288714;28;20046;-82
2022/03/31 17:51:18;;;;;;;44.67;16.25;;;;;;;;;;8288670;28;20050;-83
2022/03/31 17:55:21;;;;;;;70.95;35.00;;;;;;;;;;8291668;28;20050;-81
2022/03/31 17:59:24;;;;;;;89.50;33.90;;;;;;;;;;8271470;28;20050;-83
2022/03/31 18:03:30;;;;;;;60.58;26.23;;;;;;;;;;8293554;28;20042;-83
2022/03/31 18:08:07;;;;;;;70.45;30.48;;;;;;;;;;8286677;28;20137;-83
2022/03/31 18:12:24;;;;;;;52.38;18.92;;;;;;;;;;8250614;28;20057;-81
2022/03/31 18:16:35;;;;;;;45.80;20.50;;;;;;;;;;8268014;28;20046;-82
2022/03/31 18:20:40;;;;;;;56.45;22.42;;;;;;;;;;8270799;28;20041;-82
2022/03/31 18:24:54;;;;;;;49.78;21.05;;;;;;;;;;8291494;28;20050;-81
2022/03/31 18:33:50;;;;;;;31.08;15.02;;;;;;;;;;8280199;28;20048;-83
2022/03/31 18:34:09;;;;;;;34.40;16.58;;;;;;;;;;8267780;28;20042;-82
2022/03/31 18:38:26;;;;;;;21.60;10.07;;;;;;;;;;8263973;28;20413;-83
2022/03/31 18:43:02;;;;;;;47.35;18.65;;;;;;;;;;8267656;28;20107;-81
2022/03/31 18:47:18;;;;;;;35.10;13.02;;;;;;;;;;8266103;28;20169;-82
2022/03/31 18:51:46;;;;;;;41.67;16.30;;;;;;;;;;8277057;28;20477;-84
2022/03/31 18:56:18;;;;;;;39.13;15.18;;;;;;;;;;8276377;28;20406;-82
2022/03/31 19:00:41;;;;;;;34.55;14.77;;;;;;;;;;8279987;28;20045;-83
2022/03/31 19:05:04;;;;;;;36.45;16.95;;;;;;;;;;8276482;28;20042;-82
2022/03/31 19:09:20;;;;;;;34.20;15.10;;;;;;;;;;8283338;28;20129;-84
2022/03/31 19:13:41;;;;;;;31.13;14.02;;;;;;;;;;8256616;28;20156;-83
2022/03/31 19:18:14;;;;;;;22.08;11.85;;;;;;;;;;8280552;28;20482;-82
2022/03/31 19:22:41;;;;;;;36.17;16.65;;;;;;;;;;8282981;28;20043;-82
2022/03/31 19:26:58;;;;;;;21.08;9.75;;;;;;;;;;8279652;28;20134;-83
2022/03/31 19:31:13;;;;;;;21.48;12.02;;;;;;;;;;8279351;28;20054;-83
2022/03/31 19:35:23;;;;;;;26.17;12.77;;;;;;;;;;8284046;28;20050;-82
2022/03/31 19:40:20;;;;;;;23.60;12.02;;;;;;;;;;8280407;28;20478;-81
2022/03/31 19:44:25;;;;;;;24.77;11.93;;;;;;;;;;8276209;28;20394;-82
2022/03/31 19:48:30;;;;;;;31.50;16.45;;;;;;;;;;8265051;28;20046;-82
2022/03/31 19:52:41;;;;;;;23.95;11.48;;;;;;;;;;8282137;28;20053;-83
2022/03/31 19:56:47;;;;;;;24.80;12.13;;;;;;;;;;8295241;28;20079;-81
2022/03/31 20:00:53;;;;;;;50.47;18.02;;;;;;;;;;8291581;28;20070;-82
2022/03/31 20:04:59;;;;;;;68.07;22.83;;;;;;;;;;8291739;28;20058;-82
2022/03/31 20:09:06;;;;;;;30.58;12.68;;;;;;;;;;8288447;28;20482;-82
2022/03/31 20:13:10;;;;;;;54.25;19.88;;;;;;;;;;8265962;28;20457;-82
2022/03/31 20:17:14;;;;;;;71.22;21.90;;;;;;;;;;8265304;28;20061;-82
2022/03/31 20:21:17;;;;;;;56.40;19.13;;;;;;;;;;8265497;28;20508;-80
2022/03/31 20:25:22;;;;;;;109.00;30.60;;;;;;;;;;8265114;28;20112;-82
2022/03/31 20:29:26;;;;;;;114.47;31.23;;;;;;;;;;8265415;28;20056;-82
2022/03/31 20:33:30;;;;;;;73.05;23.17;;;;;;;;;;8270345;28;20056;-80
2022/03/31 20:37:33;;;;;;;65.40;22.98;;;;;;;;;;8272229;28;20054;-81
2022/03/31 20:41:38;;;;;;;38.15;15.40;;;;;;;;;;8271622;28;20078;-82
2022/03/31 20:45:42;;;;;;;47.80;18.85;;;;;;;;;;8271597;28;20104;-82
2022/03/31 20:49:45;;;;;;;17.70;9.63;;;;;;;;;;8271847;28;20486;-82
2022/03/31 20:53:48;;;;;;;19.73;10.00;;;;;;;;;;8271482;28;20049;-83
2022/03/31 20:57:52;;;;;;;45.28;16.23;;;;;;;;;;8271143;28;20070;-82
2022/03/31 21:01:55;;;;;;;54.40;17.98;;;;;;;;;;8271092;28;20129;-81
2022/03/31 21:05:58;;;;;;;37.20;14.77;;;;;;;;;;8271005;28;20038;-82
2022/03/31 21:10:01;;;;;;;22.33;9.75;;;;;;;;;;8270858;28;20042;-82
2022/03/31 21:14:06;;;;;;;14.50;8.40;;;;;;;;;;8270756;28;20047;-82
2022/03/31 21:18:10;;;;;;;33.28;13.27;;;;;;;;;;8270617;28;20077;-81
2022/03/31 21:22:15;;;;;;;20.33;10.60;;;;;;;;;;8270935;28;20541;-82
2022/03/31 21:26:17;;;;;;;43.53;15.77;;;;;;;;;;8270213;28;20556;-82
2022/03/31 21:30:25;;;;;;;43.40;17.92;;;;;;;;;;8270702;28;20214;-81
2022/03/31 21:34:27;;;;;;;41.47;14.57;;;;;;;;;;8294019;28;20041;-84
2022/03/31 21:38:30;;;;;;;21.48;9.20;;;;;;;;;;8273503;28;20054;-83
2022/03/31 21:42:32;;;;;;;34.08;12.88;;;;;;;;;;8269756;28;20065;-82
2022/03/31 21:46:39;;;;;;;90.00;23.00;;;;;;;;;;8270305;28;20474;-82
2022/03/31 21:50:43;;;;;;;104.10;28.70;;;;;;;;;;8277322;28;20053;-83
2022/03/31 21:54:45;;;;;;;72.57;21.02;;;;;;;;;;8302130;28;20493;-82
2022/03/31 21:58:48;;;;;;;38.33;13.45;;;;;;;;;;8284456;28;20058;-83
2022/03/31 22:02:55;;;;;;;17.02;10.82;;;;;;;;;;8302004;28;20050;-83
2022/03/31 22:07:00;;;;;;;22.65;9.52;;;;;;;;;;8301786;28;20124;-84
2022/03/31 22:15:24;;;;;;;26.52;11.48;;;;;;;;;;8301810;28;20401;-84
2022/03/31 22:19:30;;;;;;;17.88;8.52;;;;;;;;;;8301808;28;20493;-82
2022/03/31 22:23:33;;;;;;;14.98;8.73;;;;;;;;;;8300958;28;20133;-84
2022/03/31 22:27:36;;;;;;;12.23;6.82;;;;;;;;;;8288961;28;20050;-82
2022/03/31 22:31:40;;;;;;;24.08;11.30;;;;;;;;;;8294941;28;20050;-83
2022/03/31 22:35:44;;;;;;;21.42;9.75;;;;;;;;;;8291921;28;20140;-82
2022/03/31 22:39:47;;;;;;;12.70;7.43;;;;;;;;;;8268288;28;20104;-83
2022/03/31 22:43:50;;;;;;;17.65;9.52;;;;;;;;;;8268293;28;20077;-82
2022/03/31 22:47:52;;;;;;;11.43;5.70;;;;;;;;;;8268434;28;20061;-83
2022/03/31 22:51:56;;;;;;;14.18;7.80;;;;;;;;;;8268305;28;20097;-83
2022/03/31 22:55:59;;;;;;;10.55;5.97;;;;;;;;;;8327741;28;20167;-83
2022/03/31 23:00:03;;;;;;;11.20;6.22;;;;;;;;;;8332751;28;20099;-84
2022/03/31 23:04:07;;;;;;;10.98;6.15;;;;;;;;;;8317727;28;20478;-83
2022/03/31 23:08:13;;;;;;;13.20;6.57;;;;;;;;;;8299836;28;20272;-85
2022/03/31 23:12:15;;;;;;;12.25;7.60;;;;;;;;;;8299637;28;20046;-83
2022/03/31 23:16:18;;;;;;;8.93;5.03;;;;;;;;;;8299542;28;20100;-83
2022/03/31 23:20:22;;;;;;;10.23;5.90;;;;;;;;;;8299846;28;20050;-84
2022/03/31 23:24:26;;;;;;;9.93;5.55;;;;;;;;;;8299362;28;20089;-84
2022/03/31 23:28:29;;;;;;;9.57;5.72;;;;;;;;;;8299071;28;20050;-84
2022/03/31 23:32:32;;;;;;;11.05;6.15;;;;;;;;;;8299566;28;20474;-83
2022/03/31 23:36:34;;;;;;;12.30;6.68;;;;;;;;;;8298846;28;20124;-84
2022/03/31 23:40:38;;;;;;;11.05;6.03;;;;;;;;;;8298790;28;20068;-83
2022/03/31 23:44:41;;;;;;;10.75;6.15;;;;;;;;;;8298696;28;20054;-84
2022/03/31 23:48:45;;;;;;;9.25;4.75;;;;;;;;;;8298704;28;20053;-85
2022/03/31 23:52:51;;;;;;;8.77;5.47;;;;;;;;;;8298917;28;20107;-82
2022/03/31 23:56:55;;;;;;;8.43;5.65;;;;;;;;;;8298387;28;20069;-84
